createdAt,value
2019-05-01T00:00:00.330Z,1013.60
2019-05-01T00:01:53.336Z,1013.55
2019-05-01T00:02:53.371Z,1013.55
2019-05-01T00:04:46.350Z,1013.51
2019-05-01T00:05:46.405Z,1013.51
2019-05-01T00:07:39.458Z,1013.51
2019-05-01T00:08:39.458Z,1013.52
2019-05-01T00:10:32.430Z,1013.51
2019-05-01T00:11:32.485Z,1013.50
2019-05-01T00:13:25.500Z,1013.46
2019-05-01T00:14:25.529Z,1013.48
2019-05-01T00:16:18.506Z,1013.48
2019-05-01T00:17:18.568Z,1013.47
2019-05-01T00:19:11.589Z,1013.49
2019-05-01T00:20:11.613Z,1013.47
2019-05-01T00:22:04.602Z,1013.50
2019-05-01T00:23:04.664Z,1013.50
2019-05-01T00:24:57.678Z,1013.46
2019-05-01T00:25:57.707Z,1013.43
2019-05-01T00:27:50.698Z,1013.33
2019-05-01T00:28:50.741Z,1013.32
2019-05-01T00:30:43.752Z,1013.33
2019-05-01T00:31:43.789Z,1013.28
2019-05-01T00:33:36.796Z,1013.33
2019-05-01T00:34:36.857Z,1013.31
2019-05-01T00:36:29.856Z,1013.31
2019-05-01T00:37:29.897Z,1013.29
2019-05-01T00:39:22.897Z,1013.29
2019-05-01T00:40:22.935Z,1013.28
2019-05-01T00:42:15.934Z,1013.25
2019-05-01T00:43:15.978Z,1013.26
2019-05-01T00:45:09.043Z,1013.25
2019-05-01T00:46:09.075Z,1013.26
2019-05-01T00:48:02.059Z,1013.20
2019-05-01T00:49:02.116Z,1013.26
2019-05-01T00:50:55.124Z,1013.24
2019-05-01T00:51:55.152Z,1013.21
2019-05-01T00:53:48.136Z,1013.22
2019-05-01T00:54:48.200Z,1013.23
2019-05-01T00:56:41.193Z,1013.15
2019-05-01T00:57:41.228Z,1013.18
2019-05-01T00:59:34.228Z,1013.18
2019-05-01T01:00:42.896Z,1013.21
2019-05-01T01:02:27.298Z,1013.18
2019-05-01T01:03:27.340Z,1013.21
2019-05-01T01:05:20.820Z,1013.21
2019-05-01T01:06:20.878Z,1013.22
2019-05-01T01:08:13.891Z,1013.16
2019-05-01T01:09:13.915Z,1013.13
2019-05-01T01:11:06.899Z,1013.17
2019-05-01T01:12:06.958Z,1013.20
2019-05-01T01:13:59.948Z,1013.14
2019-05-01T01:14:59.993Z,1013.10
2019-05-01T01:16:52.979Z,1013.11
2019-05-01T01:17:53.036Z,1013.09
2019-05-01T01:19:46.040Z,1013.09
2019-05-01T01:20:46.078Z,1013.06
2019-05-01T01:22:39.057Z,1013.05
2019-05-01T01:23:39.119Z,1013.03
2019-05-01T01:25:32.132Z,1013.03
2019-05-01T01:26:32.162Z,1013.03
2019-05-01T01:28:25.136Z,1012.98
2019-05-01T01:29:25.194Z,1012.98
2019-05-01T01:31:18.199Z,1013.02
2019-05-01T01:32:18.236Z,1013.02
2019-05-01T01:34:11.228Z,1013.09
2019-05-01T01:35:11.284Z,1013.08
2019-05-01T01:37:04.303Z,1013.08
2019-05-01T01:38:04.329Z,1013.08
2019-05-01T01:39:57.310Z,1013.02
2019-05-01T01:40:57.369Z,1013.02
2019-05-01T01:42:50.371Z,1013.00
2019-05-01T01:43:50.405Z,1012.97
2019-05-01T01:45:43.421Z,1012.98
2019-05-01T01:46:43.446Z,1012.94
2019-05-01T01:48:36.437Z,1012.95
2019-05-01T01:49:36.494Z,1012.95
2019-05-01T01:51:29.522Z,1012.94
2019-05-01T01:52:29.557Z,1012.94
2019-05-01T01:54:22.546Z,1012.95
2019-05-01T01:55:22.603Z,1012.99
2019-05-01T01:57:15.614Z,1012.95
2019-05-01T01:58:15.645Z,1012.95
2019-05-01T02:00:08.636Z,1012.89
2019-05-01T02:01:09.861Z,1012.94
2019-05-01T02:03:01.692Z,1012.91
2019-05-01T02:04:01.733Z,1012.94
2019-05-01T02:05:56.245Z,1013.00
2019-05-01T02:06:56.277Z,1012.99
2019-05-01T02:08:56.402Z,1013.00
2019-05-01T02:09:49.322Z,1012.95
2019-05-01T02:11:42.293Z,1012.93
2019-05-01T02:12:42.358Z,1012.90
2019-05-01T02:14:35.370Z,1012.92
2019-05-01T02:15:35.398Z,1012.89
2019-05-01T02:17:28.381Z,1012.87
2019-05-01T02:18:28.441Z,1012.85
2019-05-01T02:20:21.442Z,1012.87
2019-05-01T02:21:21.477Z,1012.85
2019-05-01T02:23:14.480Z,1012.86
2019-05-01T02:24:14.520Z,1012.86
2019-05-01T02:26:07.525Z,1012.86
2019-05-01T02:27:07.566Z,1012.85
2019-05-01T02:29:00.571Z,1012.83
2019-05-01T02:30:00.611Z,1012.81
2019-05-01T02:31:53.615Z,1012.89
2019-05-01T02:32:53.645Z,1012.84
2019-05-01T02:34:46.623Z,1012.86
2019-05-01T02:35:46.681Z,1012.82
2019-05-01T02:37:39.684Z,1012.83
2019-05-01T02:38:39.725Z,1012.85
2019-05-01T02:40:32.732Z,1012.81
2019-05-01T02:41:32.758Z,1012.81
2019-05-01T02:43:25.754Z,1012.82
2019-05-01T02:44:25.803Z,1012.83
2019-05-01T02:46:18.813Z,1012.86
2019-05-01T02:47:18.844Z,1012.85
2019-05-01T02:49:11.829Z,1012.81
2019-05-01T02:50:11.888Z,1012.78
2019-05-01T02:52:04.907Z,1012.77
2019-05-01T02:53:04.932Z,1012.73
2019-05-01T02:54:57.912Z,1012.70
2019-05-01T02:55:57.970Z,1012.76
2019-05-01T02:57:50.984Z,1012.73
2019-05-01T02:58:51.005Z,1012.74
2019-05-01T03:00:44.006Z,1012.79
2019-05-01T03:01:47.668Z,1012.77
2019-05-01T03:03:37.062Z,1012.76
2019-05-01T03:04:37.106Z,1012.78
2019-05-01T03:06:30.083Z,1012.74
2019-05-01T03:07:30.148Z,1012.79
2019-05-01T03:09:23.172Z,1012.75
2019-05-01T03:10:23.197Z,1012.73
2019-05-01T03:12:16.170Z,1012.70
2019-05-01T03:13:16.226Z,1012.71
2019-05-01T03:15:09.237Z,1012.71
2019-05-01T03:16:09.270Z,1012.75
2019-05-01T03:18:02.244Z,1012.72
2019-05-01T03:19:02.302Z,1012.67
2019-05-01T03:20:55.309Z,1012.69
2019-05-01T03:21:55.348Z,1012.66
2019-05-01T03:23:48.337Z,1012.68
2019-05-01T03:24:48.389Z,1012.70
2019-05-01T03:26:41.389Z,1012.68
2019-05-01T03:27:41.435Z,1012.64
2019-05-01T03:29:34.417Z,1012.63
2019-05-01T03:30:34.475Z,1012.61
2019-05-01T03:32:27.478Z,1012.61
2019-05-01T03:33:27.512Z,1012.63
2019-05-01T03:35:20.521Z,1012.62
2019-05-01T03:36:20.568Z,1012.60
2019-05-01T03:38:13.533Z,1012.55
2019-05-01T03:39:13.593Z,1012.55
2019-05-01T03:41:06.599Z,1012.56
2019-05-01T03:42:06.629Z,1012.53
2019-05-01T03:43:59.637Z,1012.52
2019-05-01T03:44:59.671Z,1012.53
2019-05-01T03:46:52.653Z,1012.50
2019-05-01T03:47:52.706Z,1012.49
2019-05-01T03:49:45.710Z,1012.48
2019-05-01T03:50:47.003Z,1012.46
2019-05-01T03:52:38.739Z,1012.50
2019-05-01T03:53:38.784Z,1012.48
2019-05-01T03:55:31.765Z,1012.49
2019-05-01T03:56:31.829Z,1012.50
2019-05-01T03:58:24.833Z,1012.48
2019-05-01T03:59:24.872Z,1012.48
2019-05-01T04:01:17.843Z,1012.46
2019-05-01T04:02:32.304Z,1012.45
2019-05-01T04:04:10.923Z,1012.47
2019-05-01T04:05:10.960Z,1012.51
2019-05-01T04:07:03.941Z,1012.53
2019-05-01T04:08:04.011Z,1012.50
2019-05-01T04:09:57.007Z,1012.44
2019-05-01T04:10:57.036Z,1012.44
2019-05-01T04:12:50.017Z,1012.46
2019-05-01T04:13:50.071Z,1012.50
2019-05-01T04:15:43.079Z,1012.51
2019-05-01T04:16:43.108Z,1012.52
2019-05-01T04:18:36.099Z,1012.54
2019-05-01T04:19:36.152Z,1012.51
2019-05-01T04:21:29.166Z,1012.48
2019-05-01T04:22:29.189Z,1012.52
2019-05-01T04:24:22.170Z,1012.51
2019-05-01T04:25:22.232Z,1012.54
2019-05-01T04:27:15.234Z,1012.50
2019-05-01T04:28:15.267Z,1012.52
2019-05-01T04:30:08.249Z,1012.50
2019-05-01T04:31:08.311Z,1012.50
2019-05-01T04:33:01.314Z,1012.48
2019-05-01T04:34:01.344Z,1012.51
2019-05-01T04:35:54.335Z,1012.55
2019-05-01T04:36:54.394Z,1012.51
2019-05-01T04:38:47.409Z,1012.55
2019-05-01T04:39:47.445Z,1012.54
2019-05-01T04:41:40.425Z,1012.55
2019-05-01T04:42:40.479Z,1012.54
2019-05-01T04:44:33.512Z,1012.55
2019-05-01T04:45:33.515Z,1012.63
2019-05-01T04:47:26.527Z,1012.64
2019-05-01T04:48:26.561Z,1012.62
2019-05-01T04:50:19.530Z,1012.60
2019-05-01T04:51:19.590Z,1012.63
2019-05-01T04:53:12.586Z,1012.59
2019-05-01T04:54:12.628Z,1012.61
2019-05-01T04:56:05.609Z,1012.63
2019-05-01T04:57:05.665Z,1012.64
2019-05-01T04:58:58.668Z,1012.67
2019-05-01T04:59:58.703Z,1012.67
2019-05-01T05:01:51.687Z,1012.68
2019-05-01T05:03:04.058Z,1012.69
2019-05-01T05:04:44.754Z,1012.74
2019-05-01T05:05:44.784Z,1012.72
2019-05-01T05:07:37.765Z,1012.72
2019-05-01T05:08:37.823Z,1012.69
2019-05-01T05:10:30.830Z,1012.70
2019-05-01T05:11:30.864Z,1012.70
2019-05-01T05:13:23.839Z,1012.74
2019-05-01T05:14:23.898Z,1012.67
2019-05-01T05:16:16.906Z,1012.73
2019-05-01T05:17:16.932Z,1012.74
2019-05-01T05:19:09.911Z,1012.74
2019-05-01T05:20:09.969Z,1012.73
2019-05-01T05:22:03.017Z,1012.75
2019-05-01T05:23:03.015Z,1012.82
2019-05-01T05:24:56.021Z,1012.82
2019-05-01T05:25:56.062Z,1012.82
2019-05-01T05:27:49.037Z,1012.79
2019-05-01T05:28:49.087Z,1012.79
2019-05-01T05:30:42.093Z,1012.77
2019-05-01T05:31:42.123Z,1012.77
2019-05-01T05:33:35.104Z,1012.76
2019-05-01T05:34:35.181Z,1012.75
2019-05-01T05:36:28.203Z,1012.79
2019-05-01T05:37:28.199Z,1012.80
2019-05-01T05:39:21.199Z,1012.79
2019-05-01T05:40:21.235Z,1012.81
2019-05-01T05:42:14.242Z,1012.81
2019-05-01T05:43:14.272Z,1012.82
2019-05-01T05:45:07.248Z,1012.78
2019-05-01T05:46:07.313Z,1012.78
2019-05-01T05:48:00.311Z,1012.75
2019-05-01T05:49:00.348Z,1012.77
2019-05-01T05:50:53.376Z,1012.75
2019-05-01T05:51:53.388Z,1012.76
2019-05-01T05:53:46.367Z,1012.70
2019-05-01T05:54:46.424Z,1012.74
2019-05-01T05:56:39.424Z,1012.73
2019-05-01T05:57:39.463Z,1012.78
2019-05-01T05:59:32.461Z,1012.74
2019-05-01T06:00:32.501Z,1012.72
2019-05-01T06:02:25.509Z,1012.68
2019-05-01T06:03:31.215Z,1012.69
2019-05-01T06:05:20.045Z,1012.74
2019-05-01T06:06:20.098Z,1012.71
2019-05-01T06:08:13.096Z,1012.69
2019-05-01T06:09:13.869Z,1012.74
2019-05-01T06:11:06.134Z,1012.75
2019-05-01T06:12:09.033Z,1012.73
2019-05-01T06:13:59.190Z,1012.77
2019-05-01T06:15:02.439Z,1012.74
2019-05-01T06:16:54.015Z,1012.74
2019-05-01T06:17:52.242Z,1012.75
2019-05-01T06:19:45.922Z,1012.73
2019-05-01T06:20:45.338Z,1012.70
2019-05-01T06:22:40.762Z,1012.68
2019-05-01T06:23:38.320Z,1012.69
2019-05-01T06:25:31.316Z,1012.68
2019-05-01T06:26:37.365Z,1012.69
2019-05-01T06:28:24.694Z,1012.71
2019-05-01T06:29:24.394Z,1012.71
2019-05-01T06:31:17.728Z,1012.70
2019-05-01T06:32:17.433Z,1012.69
2019-05-01T06:34:10.414Z,1012.69
2019-05-01T06:35:10.475Z,1012.71
2019-05-01T06:37:03.486Z,1012.69
2019-05-01T06:38:03.525Z,1012.71
2019-05-01T06:39:56.503Z,1012.73
2019-05-01T06:40:58.110Z,1012.74
2019-05-01T06:42:50.116Z,1012.74
2019-05-01T06:43:49.597Z,1012.72
2019-05-01T06:45:42.576Z,1012.74
2019-05-01T06:46:42.634Z,1012.74
2019-05-01T06:48:35.647Z,1012.77
2019-05-01T06:49:35.681Z,1012.76
2019-05-01T06:51:28.668Z,1012.74
2019-05-01T06:52:29.324Z,1012.74
2019-05-01T06:54:21.732Z,1012.73
2019-05-01T06:55:22.623Z,1012.75
2019-05-01T06:57:14.760Z,1012.73
2019-05-01T06:58:20.264Z,1012.74
2019-05-01T07:00:09.291Z,1012.75
2019-05-01T07:01:07.858Z,1012.74
2019-05-01T07:03:00.833Z,1012.77
2019-05-01T07:04:04.154Z,1012.77
2019-05-01T07:05:56.231Z,1012.77
2019-05-01T07:06:54.437Z,1012.81
2019-05-01T07:08:47.426Z,1012.79
2019-05-01T07:09:49.203Z,1012.81
2019-05-01T07:11:42.316Z,1012.80
2019-05-01T07:12:40.521Z,1012.77
2019-05-01T07:14:33.529Z,1012.82
2019-05-01T07:15:33.562Z,1012.84
2019-05-01T07:17:26.539Z,1012.82
2019-05-01T07:18:29.054Z,1012.81
2019-05-01T07:20:19.611Z,1012.83
2019-05-01T07:21:22.859Z,1012.78
2019-05-01T07:23:12.912Z,1012.85
2019-05-01T07:24:12.676Z,1012.85
2019-05-01T07:26:09.981Z,1012.83
2019-05-01T07:27:05.742Z,1012.84
2019-05-01T07:28:58.732Z,1012.87
2019-05-01T07:29:58.789Z,1012.87
2019-05-01T07:31:51.791Z,1012.90
2019-05-01T07:32:51.828Z,1012.85
2019-05-01T07:34:44.824Z,1012.82
2019-05-01T07:35:44.865Z,1012.82
2019-05-01T07:37:37.871Z,1012.83
2019-05-01T07:38:38.814Z,1012.82
2019-05-01T07:40:30.890Z,1012.83
2019-05-01T07:41:34.022Z,1012.83
2019-05-01T07:43:25.687Z,1012.82
2019-05-01T07:44:23.983Z,1012.87
2019-05-01T07:46:18.339Z,1012.89
2019-05-01T07:47:17.023Z,1012.89
2019-05-01T07:49:13.161Z,1012.86
2019-05-01T07:50:10.069Z,1012.84
2019-05-01T07:52:03.045Z,1012.80
2019-05-01T07:53:03.095Z,1012.85
2019-05-01T07:54:56.110Z,1012.79
2019-05-01T07:55:56.145Z,1012.82
2019-05-01T07:57:49.152Z,1012.84
2019-05-01T07:58:52.063Z,1012.75
2019-05-01T08:00:42.664Z,1012.77
2019-05-01T08:01:42.217Z,1012.77
2019-05-01T08:03:38.011Z,1012.76
2019-05-01T08:04:36.215Z,1012.75
2019-05-01T08:06:28.264Z,1012.75
2019-05-01T08:07:32.372Z,1012.74
2019-05-01T08:09:21.288Z,1012.75
2019-05-01T08:10:25.912Z,1012.73
2019-05-01T08:12:14.504Z,1012.77
2019-05-01T08:13:14.383Z,1012.73
2019-05-01T08:15:07.363Z,1012.72
2019-05-01T08:16:08.787Z,1012.76
2019-05-01T08:18:00.426Z,1012.77
2019-05-01T08:19:04.161Z,1012.73
2019-05-01T08:20:53.450Z,1012.78
2019-05-01T08:21:57.001Z,1012.78
2019-05-01T08:23:47.250Z,1012.80
2019-05-01T08:24:46.556Z,1012.77
2019-05-01T08:26:43.773Z,1012.78
2019-05-01T08:27:39.615Z,1012.75
2019-05-01T08:29:32.593Z,1012.76
2019-05-01T08:30:32.640Z,1012.74
2019-05-01T08:32:25.648Z,1012.80
2019-05-01T08:33:25.680Z,1012.75
2019-05-01T08:35:18.664Z,1012.74
2019-05-01T08:36:18.721Z,1012.73
2019-05-01T08:38:11.732Z,1012.78
2019-05-01T08:39:13.874Z,1012.76
2019-05-01T08:41:04.776Z,1012.80
2019-05-01T08:42:06.986Z,1012.78
2019-05-01T08:43:57.839Z,1012.80
2019-05-01T08:44:59.950Z,1012.77
2019-05-01T08:46:52.080Z,1012.77
2019-05-01T08:47:50.910Z,1012.82
2019-05-01T08:49:49.452Z,1012.79
2019-05-01T08:50:43.952Z,1012.85
2019-05-01T08:52:36.934Z,1012.81
2019-05-01T08:53:36.998Z,1012.79
2019-05-01T08:55:30.022Z,1012.81
2019-05-01T08:56:30.050Z,1012.82
2019-05-01T08:58:23.049Z,1012.81
2019-05-01T08:59:24.120Z,1012.81
2019-05-01T09:01:16.437Z,1012.79
2019-05-01T09:02:16.137Z,1012.80
2019-05-01T09:04:13.134Z,1012.81
2019-05-01T09:05:27.277Z,1012.81
2019-05-01T09:07:02.187Z,1012.80
2019-05-01T09:08:02.243Z,1012.83
2019-05-01T09:09:55.234Z,1012.78
2019-05-01T09:11:00.089Z,1012.77
2019-05-01T09:12:48.378Z,1012.75
2019-05-01T09:13:48.319Z,1012.74
2019-05-01T09:15:43.643Z,1012.74
2019-05-01T09:16:41.358Z,1012.74
2019-05-01T09:18:34.334Z,1012.73
2019-05-01T09:19:34.401Z,1012.75
2019-05-01T09:21:27.395Z,1012.70
2019-05-01T09:22:27.444Z,1012.71
2019-05-01T09:24:23.019Z,1012.71
2019-05-01T09:25:20.498Z,1012.66
2019-05-01T09:27:13.508Z,1012.67
2019-05-01T09:28:13.544Z,1012.64
2019-05-01T09:30:06.548Z,1012.68
2019-05-01T09:31:06.587Z,1012.64
2019-05-01T09:32:59.573Z,1012.72
2019-05-01T09:33:59.628Z,1012.65
2019-05-01T09:35:52.635Z,1012.64
2019-05-01T09:36:52.669Z,1012.65
2019-05-01T09:38:45.680Z,1012.62
2019-05-01T09:39:47.310Z,1012.59
2019-05-01T09:41:42.800Z,1012.58
2019-05-01T09:42:38.773Z,1012.61
2019-05-01T09:44:31.769Z,1012.59
2019-05-01T09:45:31.817Z,1012.59
2019-05-01T09:47:24.837Z,1012.54
2019-05-01T09:48:24.864Z,1012.53
2019-05-01T09:50:17.889Z,1012.56
2019-05-01T09:51:17.903Z,1012.56
2019-05-01T09:53:10.925Z,1012.59
2019-05-01T09:54:11.037Z,1012.58
2019-05-01T09:56:07.791Z,1012.62
2019-05-01T09:57:04.011Z,1012.65
2019-05-01T09:58:57.006Z,1012.64
2019-05-01T09:59:57.037Z,1012.66
2019-05-01T10:01:50.023Z,1012.59
2019-05-01T10:02:50.087Z,1012.59
2019-05-01T10:04:43.096Z,1012.56
2019-05-01T10:05:44.208Z,1012.58
2019-05-01T10:07:36.135Z,1012.55
2019-05-01T10:08:40.026Z,1012.55
2019-05-01T10:10:30.458Z,1012.47
2019-05-01T10:11:29.235Z,1012.50
2019-05-01T10:13:24.053Z,1012.46
2019-05-01T10:14:24.357Z,1012.50
2019-05-01T10:16:15.297Z,1012.46
2019-05-01T10:17:15.337Z,1012.45
2019-05-01T10:19:08.401Z,1012.42
2019-05-01T10:20:08.440Z,1012.40
2019-05-01T10:22:03.720Z,1012.40
2019-05-01T10:23:01.503Z,1012.42
2019-05-01T10:24:54.516Z,1012.40
2019-05-01T10:25:55.518Z,1012.36
2019-05-01T10:27:47.535Z,1012.36
2019-05-01T10:28:49.973Z,1012.40
2019-05-01T10:30:40.639Z,1012.39
2019-05-01T10:31:42.853Z,1012.37
2019-05-01T10:33:36.691Z,1012.34
2019-05-01T10:34:38.793Z,1012.35
2019-05-01T10:36:30.241Z,1012.35
2019-05-01T10:37:33.732Z,1012.37
2019-05-01T10:39:22.742Z,1012.29
2019-05-01T10:40:26.938Z,1012.26
2019-05-01T10:42:15.805Z,1012.26
2019-05-01T10:43:15.851Z,1012.25
2019-05-01T10:45:08.845Z,1012.28
2019-05-01T10:46:08.910Z,1012.27
2019-05-01T10:48:01.939Z,1012.25
2019-05-01T10:49:01.955Z,1012.21
2019-05-01T10:50:54.946Z,1012.19
2019-05-01T10:51:55.216Z,1012.21
2019-05-01T10:53:48.035Z,1012.17
2019-05-01T10:54:48.054Z,1012.17
2019-05-01T10:56:41.034Z,1012.14
2019-05-01T10:57:42.238Z,1012.15
2019-05-01T10:59:34.118Z,1012.13
2019-05-01T11:00:34.162Z,1012.13
2019-05-01T11:02:27.675Z,1012.10
2019-05-01T11:03:27.711Z,1012.10
2019-05-01T11:05:21.225Z,1012.08
2019-05-01T11:06:21.285Z,1012.07
2019-05-01T11:08:14.293Z,1012.07
2019-05-01T11:09:14.335Z,1012.08
2019-05-01T11:11:07.323Z,1012.02
2019-05-01T11:12:07.382Z,1011.95
2019-05-01T11:14:00.401Z,1011.92
2019-05-01T11:15:00.440Z,1011.90
2019-05-01T11:16:53.425Z,1011.90
2019-05-01T11:17:53.500Z,1011.94
2019-05-01T11:19:46.528Z,1011.89
2019-05-01T11:20:46.554Z,1011.87
2019-05-01T11:22:39.557Z,1011.80
2019-05-01T11:23:39.605Z,1011.80
2019-05-01T11:25:32.593Z,1011.79
2019-05-01T11:26:32.655Z,1011.84
2019-05-01T11:28:25.664Z,1011.78
2019-05-01T11:29:25.703Z,1011.78
2019-05-01T11:31:18.719Z,1011.72
2019-05-01T11:32:18.751Z,1011.71
2019-05-01T11:34:11.741Z,1011.75
2019-05-01T11:35:11.803Z,1011.75
2019-05-01T11:37:04.813Z,1011.73
2019-05-01T11:38:04.852Z,1011.75
2019-05-01T11:39:57.876Z,1011.69
2019-05-01T11:40:57.909Z,1011.65
2019-05-01T11:42:50.894Z,1011.59
2019-05-01T11:43:50.961Z,1011.63
2019-05-01T11:45:43.978Z,1011.69
2019-05-01T11:46:43.996Z,1011.68
2019-05-01T11:48:36.987Z,1011.65
2019-05-01T11:49:37.044Z,1011.64
2019-05-01T11:51:30.062Z,1011.58
2019-05-01T11:52:30.101Z,1011.62
2019-05-01T11:54:23.622Z,1011.65
2019-05-01T11:55:23.858Z,1011.63
2019-05-01T11:57:16.702Z,1011.60
2019-05-01T11:58:16.729Z,1011.58
2019-05-01T12:00:09.719Z,1011.62
2019-05-01T12:01:09.779Z,1011.57
2019-05-01T12:03:02.785Z,1011.55
2019-05-01T12:04:02.863Z,1011.59
2019-05-01T12:05:56.351Z,1011.55
2019-05-01T12:06:56.382Z,1011.56
2019-05-01T12:08:49.468Z,1011.60
2019-05-01T12:09:49.459Z,1011.58
2019-05-01T12:11:42.449Z,1011.54
2019-05-01T12:12:42.512Z,1011.55
2019-05-01T12:14:35.540Z,1011.52
2019-05-01T12:15:35.562Z,1011.52
2019-05-01T12:17:28.549Z,1011.50
2019-05-01T12:18:28.611Z,1011.50
2019-05-01T12:20:21.975Z,1011.49
2019-05-01T12:21:21.916Z,1011.46
2019-05-01T12:23:14.921Z,1011.42
2019-05-01T12:24:14.966Z,1011.50
2019-05-01T12:26:10.981Z,1011.36
2019-05-01T12:27:11.118Z,1011.39
2019-05-01T12:29:04.023Z,1011.34
2019-05-01T12:30:04.083Z,1011.34
2019-05-01T12:32:12.766Z,1011.31
2019-05-01T12:33:12.474Z,1011.30
2019-05-01T12:35:05.551Z,1011.28
2019-05-01T12:36:05.536Z,1011.27
2019-05-01T12:37:58.545Z,1011.19
2019-05-01T12:38:58.580Z,1011.18
2019-05-01T12:40:51.568Z,1011.14
2019-05-01T12:41:51.639Z,1011.10
2019-05-01T12:43:44.631Z,1011.11
2019-05-01T12:44:44.679Z,1011.09
2019-05-01T12:46:37.683Z,1011.05
2019-05-01T12:47:38.156Z,1011.04
2019-05-01T12:49:30.711Z,1011.05
2019-05-01T12:50:30.773Z,1011.02
2019-05-01T12:52:23.781Z,1011.03
2019-05-01T12:53:23.828Z,1010.99
2019-05-01T12:55:16.814Z,1010.96
2019-05-01T12:56:16.876Z,1010.96
2019-05-01T12:58:09.883Z,1010.93
2019-05-01T12:59:09.928Z,1010.91
2019-05-01T13:01:02.910Z,1010.93
2019-05-01T13:02:02.975Z,1010.90
2019-05-01T13:03:55.992Z,1010.86
2019-05-01T13:04:56.030Z,1010.81
2019-05-01T13:06:49.713Z,1010.82
2019-05-01T13:07:49.075Z,1010.83
2019-05-01T13:09:42.064Z,1010.82
2019-05-01T13:10:42.115Z,1010.81
2019-05-01T13:12:35.130Z,1010.82
2019-05-01T13:13:35.169Z,1010.78
2019-05-01T13:15:28.175Z,1010.78
2019-05-01T13:16:28.227Z,1010.77
2019-05-01T13:18:21.234Z,1010.75
2019-05-01T13:19:21.550Z,1010.74
2019-05-01T13:21:14.283Z,1010.70
2019-05-01T13:22:14.328Z,1010.65
2019-05-01T13:24:07.319Z,1010.64
2019-05-01T13:25:07.403Z,1010.65
2019-05-01T13:27:00.385Z,1010.61
2019-05-01T13:28:00.431Z,1010.61
2019-05-01T13:29:53.428Z,1010.59
2019-05-01T13:30:53.476Z,1010.56
2019-05-01T13:32:46.991Z,1010.53
2019-05-01T13:33:47.031Z,1010.48
2019-05-01T13:35:40.052Z,1010.48
2019-05-01T13:36:40.081Z,1010.46
2019-05-01T13:38:33.069Z,1010.43
2019-05-01T13:39:33.125Z,1010.42
2019-05-01T13:41:26.123Z,1010.39
2019-05-01T13:42:26.176Z,1010.36
2019-05-01T13:44:19.181Z,1010.35
2019-05-01T13:45:19.224Z,1010.33
2019-05-01T13:47:12.212Z,1010.34
2019-05-01T13:48:12.286Z,1010.30
2019-05-01T13:50:05.271Z,1010.30
2019-05-01T13:51:05.319Z,1010.26
2019-05-01T13:52:58.310Z,1010.27
2019-05-01T13:53:58.370Z,1010.25
2019-05-01T13:55:51.373Z,1010.26
2019-05-01T13:56:51.416Z,1010.20
2019-05-01T13:58:44.419Z,1010.15
2019-05-01T13:59:44.465Z,1010.14
2019-05-01T14:01:37.472Z,1010.13
2019-05-01T14:02:37.515Z,1010.16
2019-05-01T14:04:30.526Z,1010.16
2019-05-01T14:05:30.574Z,1010.13
2019-05-01T14:07:23.585Z,1010.05
2019-05-01T14:08:23.626Z,1010.08
2019-05-01T14:10:16.643Z,1010.01
2019-05-01T14:11:16.681Z,1010.03
2019-05-01T14:13:09.691Z,1010.00
2019-05-01T14:14:09.735Z,1009.95
2019-05-01T14:16:02.743Z,1009.91
2019-05-01T14:17:02.783Z,1009.88
2019-05-01T14:18:55.809Z,1009.89
2019-05-01T14:19:55.839Z,1009.90
2019-05-01T14:21:48.825Z,1009.89
2019-05-01T14:22:48.901Z,1009.90
2019-05-01T14:24:41.914Z,1009.85
2019-05-01T14:25:41.962Z,1009.84
2019-05-01T14:27:34.940Z,1009.84
2019-05-01T14:28:35.002Z,1009.81
2019-05-01T14:30:28.050Z,1009.78
2019-05-01T14:31:28.094Z,1009.84
2019-05-01T14:33:21.088Z,1009.83
2019-05-01T14:34:21.147Z,1009.84
2019-05-01T14:36:14.156Z,1009.77
2019-05-01T14:37:14.201Z,1009.81
2019-05-01T14:39:07.196Z,1009.81
2019-05-01T14:40:07.249Z,1009.77
2019-05-01T14:42:00.266Z,1009.74
2019-05-01T14:43:00.301Z,1009.77
2019-05-01T14:44:53.284Z,1009.72
2019-05-01T14:45:55.890Z,1009.65
2019-05-01T14:47:46.349Z,1009.67
2019-05-01T14:48:46.393Z,1009.63
2019-05-01T14:50:39.445Z,1009.64
2019-05-01T14:51:39.466Z,1009.67
2019-05-01T14:53:32.437Z,1009.68
2019-05-01T14:54:32.504Z,1009.65
2019-05-01T14:56:25.509Z,1009.65
2019-05-01T14:57:25.547Z,1009.60
2019-05-01T14:59:18.581Z,1009.59
2019-05-01T15:00:18.595Z,1009.57
2019-05-01T15:02:11.577Z,1009.55
2019-05-01T15:03:11.641Z,1009.54
2019-05-01T15:05:04.647Z,1009.54
2019-05-01T15:06:04.689Z,1009.49
2019-05-01T15:07:57.677Z,1009.48
2019-05-01T15:08:57.738Z,1009.47
2019-05-01T15:10:50.754Z,1009.47
2019-05-01T15:11:50.790Z,1009.42
2019-05-01T15:13:43.796Z,1009.43
2019-05-01T15:14:43.837Z,1009.41
2019-05-01T15:16:36.848Z,1009.40
2019-05-01T15:17:36.898Z,1009.36
2019-05-01T15:19:29.881Z,1009.40
2019-05-01T15:20:29.947Z,1009.36
2019-05-01T15:22:22.947Z,1009.34
2019-05-01T15:23:23.003Z,1009.38
2019-05-01T15:25:15.986Z,1009.31
2019-05-01T15:26:16.047Z,1009.32
2019-05-01T15:28:09.060Z,1009.31
2019-05-01T15:29:09.100Z,1009.25
2019-05-01T15:31:02.117Z,1009.27
2019-05-01T15:32:02.147Z,1009.27
2019-05-01T15:33:55.135Z,1009.25
2019-05-01T15:34:55.190Z,1009.23
2019-05-01T15:36:48.194Z,1009.23
2019-05-01T15:37:56.494Z,1009.23
2019-05-01T15:39:41.223Z,1009.20
2019-05-01T15:40:41.285Z,1009.19
2019-05-01T15:42:34.332Z,1009.25
2019-05-01T15:43:34.331Z,1009.27
2019-05-01T15:45:27.316Z,1009.24
2019-05-01T15:46:27.378Z,1009.27
2019-05-01T15:48:20.393Z,1009.22
2019-05-01T15:49:20.454Z,1009.22
2019-05-01T15:51:13.443Z,1009.24
2019-05-01T15:52:13.487Z,1009.20
2019-05-01T15:54:06.524Z,1009.18
2019-05-01T15:55:06.528Z,1009.19
2019-05-01T15:56:59.555Z,1009.16
2019-05-01T15:57:59.587Z,1009.15
2019-05-01T15:59:52.695Z,1009.11
2019-05-01T16:00:52.668Z,1009.11
2019-05-01T16:02:45.637Z,1009.13
2019-05-01T16:03:45.691Z,1009.14
2019-05-01T16:05:38.735Z,1009.08
2019-05-01T16:06:38.781Z,1009.06
2019-05-01T16:08:31.806Z,1009.07
2019-05-01T16:09:31.862Z,1009.05
2019-05-01T16:11:24.876Z,1009.06
2019-05-01T16:12:24.909Z,1009.06
2019-05-01T16:14:17.909Z,1009.04
2019-05-01T16:15:17.976Z,1009.06
2019-05-01T16:17:10.983Z,1009.04
2019-05-01T16:18:11.060Z,1009.05
2019-05-01T16:20:04.042Z,1009.05
2019-05-01T16:21:04.076Z,1009.04
2019-05-01T16:22:57.054Z,1009.03
2019-05-01T16:23:57.115Z,1009.01
2019-05-01T16:25:50.133Z,1009.00
2019-05-01T16:26:50.172Z,1008.99
2019-05-01T16:28:43.193Z,1009.00
2019-05-01T16:29:43.279Z,1008.96
2019-05-01T16:31:36.275Z,1008.97
2019-05-01T16:32:36.307Z,1008.96
2019-05-01T16:34:29.338Z,1008.91
2019-05-01T16:35:29.357Z,1008.93
2019-05-01T16:37:22.365Z,1008.91
2019-05-01T16:38:23.435Z,1008.83
2019-05-01T16:40:15.398Z,1008.83
2019-05-01T16:41:15.464Z,1008.79
2019-05-01T16:43:08.477Z,1008.78
2019-05-01T16:44:08.522Z,1008.75
2019-05-01T16:46:01.574Z,1008.72
2019-05-01T16:47:01.652Z,1008.71
2019-05-01T16:48:54.638Z,1008.70
2019-05-01T16:49:54.682Z,1008.72
2019-05-01T16:51:47.669Z,1008.66
2019-05-01T16:52:47.728Z,1008.64
2019-05-01T16:54:40.741Z,1008.62
2019-05-01T16:55:40.781Z,1008.63
2019-05-01T16:57:33.796Z,1008.58
2019-05-01T16:58:33.844Z,1008.62
2019-05-01T17:00:26.849Z,1008.59
2019-05-01T17:01:26.890Z,1008.55
2019-05-01T17:03:19.876Z,1008.54
2019-05-01T17:04:19.935Z,1008.53
2019-05-01T17:06:12.951Z,1008.54
2019-05-01T17:07:12.981Z,1008.52
2019-05-01T17:09:05.966Z,1008.53
2019-05-01T17:10:06.031Z,1008.53
2019-05-01T17:11:59.034Z,1008.52
2019-05-01T17:12:59.076Z,1008.54
2019-05-01T17:14:52.085Z,1008.57
2019-05-01T17:15:52.145Z,1008.55
2019-05-01T17:17:45.127Z,1008.53
2019-05-01T17:18:45.183Z,1008.50
2019-05-01T17:20:38.197Z,1008.50
2019-05-01T17:21:38.232Z,1008.48
2019-05-01T17:23:31.219Z,1008.45
2019-05-01T17:24:31.278Z,1008.41
2019-05-01T17:26:24.290Z,1008.41